createdAt,value
2023-04-11T05:03:11.061Z,19.19
2023-04-11T05:04:12.026Z,19.16
2023-04-11T05:05:11.813Z,19.20
2023-04-11T05:06:10.826Z,19.23
2023-04-11T05:07:10.833Z,19.24
2023-04-11T05:08:11.876Z,19.23
2023-04-11T05:09:11.938Z,19.26
2023-04-11T05:10:10.945Z,19.26
2023-04-11T05:11:10.925Z,19.29
2023-04-11T05:12:10.965Z,19.30
2023-04-11T05:13:11.030Z,19.27
2023-04-11T05:14:12.077Z,19.26
2023-04-11T05:15:12.119Z,19.31
2023-04-11T05:16:12.199Z,19.31
2023-04-11T05:17:12.218Z,19.35
2023-04-11T05:18:11.408Z,19.37
2023-04-11T05:19:12.352Z,19.38
2023-04-11T05:20:11.410Z,19.38
2023-04-11T05:21:12.419Z,19.40
2023-04-11T05:22:12.474Z,19.41
2023-04-11T05:23:12.625Z,19.44
2023-04-11T05:24:12.594Z,19.46
2023-04-11T05:25:12.604Z,19.41
2023-04-11T05:26:12.682Z,19.47
2023-04-11T05:27:12.696Z,19.48
2023-04-11T05:28:12.754Z,19.50
2023-04-11T05:29:11.793Z,19.44
2023-04-11T05:30:13.826Z,19.48
2023-04-11T05:31:12.913Z,19.53
2023-04-11T05:32:12.895Z,19.48
2023-04-11T05:33:12.970Z,19.48
2023-04-11T05:34:12.991Z,19.51
2023-04-11T05:35:12.176Z,19.51
2023-04-11T05:36:13.119Z,19.46
2023-04-11T05:37:13.124Z,19.48
2023-04-11T05:38:13.170Z,19.47
2023-04-11T05:39:13.208Z,19.51
2023-04-11T05:40:12.280Z,19.53
2023-04-11T05:41:13.389Z,19.56
2023-04-11T05:42:13.337Z,19.58
2023-04-11T05:43:13.430Z,19.56
2023-04-11T05:44:13.426Z,19.51
2023-04-11T05:45:12.485Z,19.56
2023-04-11T05:46:13.632Z,19.56
2023-04-11T05:47:12.594Z,19.54
2023-04-11T05:48:15.934Z,19.54
2023-04-11T05:49:13.586Z,19.56
2023-04-11T05:50:13.609Z,19.57
2023-04-11T05:51:13.577Z,19.60
2023-04-11T05:52:13.635Z,19.62
2023-04-11T05:53:12.565Z,19.48
2023-04-11T05:54:13.562Z,19.56
2023-04-11T05:55:13.549Z,19.60
2023-04-11T05:56:13.545Z,19.58
2023-04-11T05:57:12.533Z,19.56
2023-04-11T05:58:13.518Z,19.58
2023-04-11T05:59:13.562Z,19.54
2023-04-11T06:00:13.527Z,19.53
2023-04-11T06:01:13.510Z,19.56
2023-04-11T06:02:12.540Z,19.57
2023-04-11T06:03:13.692Z,19.61
2023-04-11T06:04:13.659Z,19.69
2023-04-11T06:05:13.616Z,19.69
2023-04-11T06:06:13.520Z,19.74
2023-04-11T06:07:13.474Z,19.74
2023-04-11T06:08:12.439Z,19.72
2023-04-11T06:09:13.444Z,19.78
2023-04-11T06:10:13.430Z,19.81
2023-04-11T06:11:13.425Z,19.79
2023-04-11T06:12:12.409Z,19.85
2023-04-11T06:13:13.440Z,19.88
2023-04-11T06:14:13.428Z,19.88
2023-04-11T06:15:12.398Z,19.91
2023-04-11T06:16:12.427Z,19.95
2023-04-11T06:17:13.385Z,19.97
2023-04-11T06:18:12.375Z,19.95
2023-04-11T06:19:13.383Z,19.96
2023-04-11T06:20:13.354Z,20.02
2023-04-11T06:21:13.358Z,19.99
2023-04-11T06:22:13.369Z,20.03
2023-04-11T06:23:13.344Z,20.03
2023-04-11T06:24:12.346Z,20.09
2023-04-11T06:25:13.332Z,20.08
2023-04-11T06:26:13.314Z,20.09
2023-04-11T06:27:12.304Z,20.08
2023-04-11T06:28:12.295Z,20.12
2023-04-11T06:29:13.318Z,20.09
2023-04-11T06:30:13.293Z,20.13
2023-04-11T06:31:12.322Z,20.13
2023-04-11T06:32:12.300Z,20.13
2023-04-11T06:33:13.324Z,20.17
2023-04-11T06:34:13.368Z,20.15
2023-04-11T06:35:13.452Z,20.16
2023-04-11T06:36:13.532Z,20.19
2023-04-11T06:37:12.543Z,20.20
2023-04-11T06:38:12.651Z,20.21
2023-04-11T06:39:13.680Z,20.21
2023-04-11T06:40:13.729Z,20.24
2023-04-11T06:41:13.757Z,20.26
2023-04-11T06:42:13.891Z,20.24
2023-04-11T06:43:13.934Z,20.29
2023-04-11T06:44:13.952Z,20.36
2023-04-11T06:45:14.073Z,20.43
2023-04-11T06:46:13.121Z,20.50
2023-04-11T06:47:14.043Z,20.55
2023-04-11T06:48:14.079Z,20.50
2023-04-11T06:49:13.158Z,20.51
2023-04-11T06:50:13.170Z,20.48
2023-04-11T06:51:14.196Z,20.48
2023-04-11T06:52:14.248Z,20.48
2023-04-11T06:53:14.288Z,20.46
2023-04-11T06:54:14.355Z,20.48
2023-04-11T06:55:14.404Z,20.55
2023-04-11T06:56:14.409Z,20.58
2023-04-11T06:57:14.450Z,20.58
2023-04-11T06:58:14.521Z,20.58
2023-04-11T06:59:14.843Z,20.54
2023-04-11T07:00:14.566Z,20.55
2023-04-11T07:01:14.619Z,20.55
2023-04-11T07:02:13.906Z,20.51
2023-04-11T07:03:14.885Z,20.51
2023-04-11T07:04:14.946Z,20.50
2023-04-11T07:05:14.758Z,20.52
2023-04-11T07:06:14.796Z,20.54
2023-04-11T07:07:13.834Z,20.51
2023-04-11T07:08:14.868Z,20.54
2023-04-11T07:09:14.917Z,20.54
2023-04-11T07:10:13.957Z,20.54
2023-04-11T07:11:14.976Z,20.55
2023-04-11T07:12:13.999Z,20.54
2023-04-11T07:13:15.031Z,20.55
2023-04-11T07:14:14.064Z,20.58
2023-04-11T07:15:15.090Z,20.57
2023-04-11T07:16:15.136Z,20.61
2023-04-11T07:17:15.136Z,20.58
2023-04-11T07:18:15.201Z,20.63
2023-04-11T07:19:15.185Z,20.65
2023-04-11T07:20:15.200Z,20.63
2023-04-11T07:21:15.204Z,20.65
2023-04-11T07:22:14.234Z,20.61
2023-04-11T07:23:15.253Z,20.63
2023-04-11T07:24:15.270Z,20.65
2023-04-11T07:25:15.310Z,20.67
2023-04-11T07:26:14.351Z,20.68
2023-04-11T07:27:14.471Z,20.67
2023-04-11T07:28:15.340Z,20.71
2023-04-11T07:29:15.354Z,20.70
2023-04-11T07:30:15.366Z,20.70
2023-04-11T07:31:15.382Z,20.68
2023-04-11T07:32:14.377Z,20.68
2023-04-11T07:33:15.388Z,20.74
2023-04-11T07:34:15.420Z,20.72
2023-04-11T07:35:15.428Z,20.65
2023-04-11T07:36:14.467Z,20.67
2023-04-11T07:37:14.460Z,20.67
2023-04-11T07:38:14.458Z,20.59
2023-04-11T07:39:15.498Z,20.64
2023-04-11T07:40:15.499Z,20.71
2023-04-11T07:41:15.505Z,20.72
2023-04-11T07:42:15.564Z,20.64
2023-04-11T07:43:15.559Z,20.70
2023-04-11T07:44:15.580Z,20.74
2023-04-11T07:45:15.586Z,20.64
2023-04-11T07:46:15.703Z,20.58
2023-04-11T07:47:15.630Z,20.54
2023-04-11T07:48:14.651Z,20.54
2023-04-11T07:49:15.878Z,20.48
2023-04-11T07:50:14.705Z,20.54
2023-04-11T07:51:14.752Z,20.59
2023-04-11T07:52:15.778Z,20.65
2023-04-11T07:53:15.823Z,20.59
2023-04-11T07:54:15.357Z,20.58
2023-04-11T07:55:14.905Z,20.65
2023-04-11T07:56:15.924Z,20.63
2023-04-11T07:57:15.925Z,20.65
2023-04-11T07:58:14.966Z,20.68
2023-04-11T07:59:14.964Z,20.64
2023-04-11T08:00:14.992Z,20.67
2023-04-11T08:01:16.034Z,20.75
2023-04-11T08:02:15.101Z,20.81
2023-04-11T08:03:16.267Z,20.76
2023-04-11T08:04:15.414Z,20.76
2023-04-11T08:05:16.193Z,20.71
2023-04-11T08:06:16.129Z,20.74
2023-04-11T08:07:16.129Z,20.76
2023-04-11T08:08:15.170Z,20.71
2023-04-11T08:09:16.186Z,20.70
2023-04-11T08:10:16.198Z,20.70
2023-04-11T08:11:16.232Z,20.65
2023-04-11T08:12:16.237Z,20.65
2023-04-11T08:13:15.266Z,20.70
2023-04-11T08:14:16.399Z,20.64
2023-04-11T08:15:15.317Z,20.64
2023-04-11T08:16:15.525Z,20.67
2023-04-11T08:17:27.196Z,20.64
2023-04-11T08:18:16.447Z,20.61
2023-04-11T08:19:16.367Z,20.65
2023-04-11T08:20:15.331Z,20.64
2023-04-11T08:21:16.322Z,20.65
2023-04-11T08:22:16.311Z,20.64
2023-04-11T08:23:15.306Z,20.70
2023-04-11T08:24:16.341Z,20.63
2023-04-11T08:25:16.334Z,20.65
2023-04-11T08:26:16.363Z,20.61
2023-04-11T08:27:15.291Z,20.61
2023-04-11T08:28:15.282Z,20.61
2023-04-11T08:29:16.370Z,20.68
2023-04-11T08:30:16.298Z,20.63
2023-04-11T08:31:16.323Z,20.63
2023-04-11T08:32:16.244Z,20.64
2023-04-11T08:33:16.324Z,20.67
2023-04-11T08:34:16.257Z,20.67
2023-04-11T08:35:15.317Z,20.64
2023-04-11T08:36:16.321Z,20.64
2023-04-11T08:37:15.281Z,20.65
2023-04-11T08:38:16.287Z,20.68
2023-04-11T08:39:16.310Z,20.71
2023-04-11T08:40:15.326Z,20.71
2023-04-11T08:41:16.313Z,20.70
2023-04-11T08:42:16.342Z,20.67
2023-04-11T08:43:16.356Z,20.65
2023-04-11T08:44:15.915Z,20.67
2023-04-11T08:45:16.410Z,20.68
2023-04-11T08:46:16.662Z,20.65
2023-04-11T08:47:16.445Z,20.64
2023-04-11T08:48:16.473Z,20.63
2023-04-11T08:49:16.531Z,20.58
2023-04-11T08:50:16.711Z,20.59
2023-04-11T08:51:16.516Z,20.55
2023-04-11T08:52:15.562Z,20.57
2023-04-11T08:53:16.606Z,20.52
2023-04-11T08:54:15.873Z,20.54
2023-04-11T08:55:16.631Z,20.54
2023-04-11T08:56:15.667Z,20.51
2023-04-11T08:57:16.696Z,20.54
2023-04-11T08:58:16.731Z,20.57
2023-04-11T08:59:16.757Z,20.55
2023-04-11T09:00:16.758Z,20.57
2023-04-11T09:01:15.813Z,20.65
2023-04-11T09:02:17.263Z,20.65
2023-04-11T09:03:15.920Z,20.67
2023-04-11T09:04:15.887Z,20.67
2023-04-11T09:05:16.861Z,20.68
2023-04-11T09:06:16.865Z,20.70
2023-04-11T09:07:16.912Z,20.72
2023-04-11T09:08:16.922Z,20.76
2023-04-11T09:09:15.900Z,20.76
2023-04-11T09:10:16.933Z,20.75
2023-04-11T09:11:16.943Z,20.75
2023-04-11T09:12:16.922Z,20.75
2023-04-11T09:13:16.931Z,20.72
2023-04-11T09:14:15.976Z,20.75
2023-04-11T09:15:15.965Z,20.74
2023-04-11T09:16:17.011Z,20.78
2023-04-11T09:17:17.192Z,20.75
2023-04-11T09:18:16.034Z,20.72
2023-04-11T09:19:16.049Z,20.75
2023-04-11T09:20:16.057Z,20.71
2023-04-11T09:21:16.079Z,20.74
2023-04-11T09:22:16.089Z,20.75
2023-04-11T09:23:17.102Z,20.78
2023-04-11T09:24:17.126Z,20.71
2023-04-11T09:25:17.124Z,20.78
2023-04-11T09:26:16.129Z,20.78
2023-04-11T09:27:16.153Z,20.75
2023-04-11T09:28:16.153Z,20.75
2023-04-11T09:29:16.182Z,20.79
2023-04-11T09:30:16.183Z,20.79
2023-04-11T09:31:17.193Z,20.82
2023-04-11T09:32:17.332Z,20.79
2023-04-11T09:33:17.212Z,20.78
2023-04-11T09:34:17.246Z,20.81
2023-04-11T09:35:16.255Z,20.85
2023-04-11T09:36:17.253Z,20.86
2023-04-11T09:37:17.254Z,20.86
2023-04-11T09:38:17.287Z,20.91
2023-04-11T09:39:17.384Z,20.92
2023-04-11T09:40:17.316Z,20.93
2023-04-11T09:41:17.322Z,20.93
2023-04-11T09:42:16.320Z,20.93
2023-04-11T09:43:19.376Z,20.95
2023-04-11T09:44:17.390Z,20.91
2023-04-11T09:45:17.305Z,20.89
2023-04-11T09:46:17.336Z,20.82
2023-04-11T09:47:17.284Z,20.76
2023-04-11T09:48:17.283Z,20.71
2023-04-11T09:49:17.399Z,20.74
2023-04-11T09:50:16.298Z,20.70
2023-04-11T09:51:28.122Z,20.67
2023-04-11T09:52:17.266Z,20.65
2023-04-11T09:53:17.259Z,20.61
2023-04-11T09:54:17.396Z,20.59
2023-04-11T09:55:17.243Z,20.52
2023-04-11T09:56:17.244Z,20.47
2023-04-11T09:57:16.240Z,20.51
2023-04-11T09:58:16.239Z,20.48
2023-04-11T09:59:17.236Z,20.47
2023-04-11T10:00:17.271Z,20.47
2023-04-11T10:01:17.243Z,20.46
2023-04-11T10:02:17.286Z,20.47
2023-04-11T10:03:17.260Z,20.43
2023-04-11T10:04:17.437Z,20.44
2023-04-11T10:05:17.172Z,20.41
2023-04-11T10:06:17.197Z,20.31
2023-04-11T10:07:17.213Z,20.37
2023-04-11T10:08:16.135Z,20.37
2023-04-11T10:09:17.125Z,20.41
2023-04-11T10:10:16.115Z,20.40
2023-04-11T10:11:16.126Z,20.36
2023-04-11T10:12:17.140Z,20.31
2023-04-11T10:13:17.115Z,20.37
2023-04-11T10:14:17.089Z,20.36
2023-04-11T10:15:17.110Z,20.38
2023-04-11T10:16:17.112Z,20.34
2023-04-11T10:17:18.921Z,20.31
2023-04-11T10:18:17.066Z,20.36
2023-04-11T10:19:16.406Z,20.38
2023-04-11T10:20:17.052Z,20.40
2023-04-11T10:21:16.037Z,20.40
2023-04-11T10:22:17.130Z,20.37
2023-04-11T10:23:16.020Z,20.38
2023-04-11T10:24:17.524Z,20.38
2023-04-11T10:25:17.001Z,20.38
2023-04-11T10:26:15.985Z,20.36
2023-04-11T10:27:16.986Z,20.33
2023-04-11T10:28:15.977Z,20.33
2023-04-11T10:29:16.979Z,20.37
2023-04-11T10:30:16.959Z,20.36
2023-04-11T10:31:16.972Z,20.38
2023-04-11T10:32:16.954Z,20.37
2023-04-11T10:33:16.970Z,20.37
2023-04-11T10:34:17.021Z,20.37
2023-04-11T10:35:17.070Z,20.36
2023-04-11T10:36:17.137Z,20.34
2023-04-11T10:37:16.156Z,20.34
2023-04-11T10:38:16.267Z,20.37
2023-04-11T10:39:17.254Z,20.38
2023-04-11T10:40:17.301Z,20.34
2023-04-11T10:41:17.390Z,20.38
2023-04-11T10:42:16.389Z,20.33
2023-04-11T10:43:17.443Z,20.40
2023-04-11T10:44:17.953Z,20.36
2023-04-11T10:45:16.548Z,20.40
2023-04-11T10:46:16.631Z,20.41
2023-04-11T10:47:17.764Z,20.41
2023-04-11T10:48:17.653Z,20.38
2023-04-11T10:49:17.722Z,20.38
2023-04-11T10:50:16.746Z,20.37
2023-04-11T10:51:17.778Z,20.40
2023-04-11T10:52:17.841Z,20.46
2023-04-11T10:53:17.892Z,20.43
2023-04-11T10:54:17.996Z,20.46
2023-04-11T10:55:17.950Z,20.41
2023-04-11T10:56:17.539Z,20.41
2023-04-11T10:57:17.019Z,20.46
2023-04-11T10:58:17.063Z,20.41
2023-04-11T10:59:18.141Z,20.40
2023-04-11T11:00:17.127Z,20.48
2023-04-11T11:01:31.536Z,20.50
2023-04-11T11:02:18.202Z,20.50
2023-04-11T11:03:18.290Z,20.55
2023-04-11T11:04:17.603Z,20.54
2023-04-11T11:05:18.205Z,20.54
2023-04-11T11:06:18.182Z,20.54
2023-04-11T11:07:18.120Z,20.55
2023-04-11T11:08:17.104Z,20.54
2023-04-11T11:09:18.147Z,20.52
2023-04-11T11:10:17.109Z,20.54
2023-04-11T11:11:18.107Z,20.55
2023-04-11T11:12:17.089Z,20.55
2023-04-11T11:13:18.067Z,20.58
2023-04-11T11:14:18.074Z,20.59
2023-04-11T11:15:17.050Z,20.54
2023-04-11T11:16:18.144Z,20.59
2023-04-11T11:17:18.024Z,20.54
2023-04-11T11:18:18.013Z,20.59
2023-04-11T11:19:17.082Z,20.57
2023-04-11T11:20:17.037Z,20.64
2023-04-11T11:21:20.763Z,20.61
2023-04-11T11:22:17.986Z,20.65
2023-04-11T11:23:17.985Z,20.57
2023-04-11T11:24:17.971Z,20.59
2023-04-11T11:25:18.412Z,20.58
2023-04-11T11:26:17.984Z,20.58
2023-04-11T11:27:17.960Z,20.63
2023-04-11T11:28:17.937Z,20.61
2023-04-11T11:29:17.926Z,20.63
2023-04-11T11:30:17.936Z,20.65
2023-04-11T11:31:17.935Z,20.57
2023-04-11T11:32:16.932Z,20.57
2023-04-11T11:33:18.026Z,20.57
2023-04-11T11:35:16.889Z,20.54
2023-04-11T11:36:17.912Z,20.59
2023-04-11T11:37:17.892Z,20.58
2023-04-11T11:38:16.894Z,20.57
2023-04-11T11:39:16.862Z,20.55
2023-04-11T11:40:17.924Z,20.57
2023-04-11T11:41:16.860Z,20.55
2023-04-11T11:42:17.891Z,20.59
2023-04-11T11:43:17.824Z,20.63
2023-04-11T11:44:17.830Z,20.61
2023-04-11T11:45:16.820Z,20.61
2023-04-11T11:46:17.850Z,20.61
2023-04-11T11:47:17.963Z,20.58
2023-04-11T11:48:17.790Z,20.59
2023-04-11T11:49:17.792Z,20.64
2023-04-11T11:50:16.793Z,20.58
2023-04-11T11:51:16.796Z,20.65
2023-04-11T11:52:16.763Z,20.63
2023-04-11T11:53:16.757Z,20.59
2023-04-11T11:54:17.771Z,20.63
2023-04-11T11:55:17.776Z,20.59
2023-04-11T11:56:16.765Z,20.59
2023-04-11T11:57:16.754Z,20.57
2023-04-11T11:58:16.753Z,20.59
2023-04-11T11:59:16.728Z,20.55
2023-04-11T12:00:16.710Z,20.54
2023-04-11T12:01:17.848Z,20.59
2023-04-11T12:02:16.782Z,20.57
2023-04-11T12:03:16.842Z,20.61
2023-04-11T12:04:16.844Z,20.55
2023-04-11T12:05:17.723Z,20.61
2023-04-11T12:06:17.676Z,20.57
2023-04-11T12:07:17.661Z,20.61
2023-04-11T12:08:16.699Z,20.59
2023-04-11T12:09:17.653Z,20.55
2023-04-11T12:10:16.679Z,20.54
2023-04-11T12:11:17.635Z,20.52
2023-04-11T12:12:16.616Z,20.50
2023-04-11T12:13:17.609Z,20.57
2023-04-11T12:14:16.631Z,20.55
2023-04-11T12:15:17.599Z,20.57
2023-04-11T12:16:17.640Z,20.52
2023-04-11T12:17:16.603Z,20.55
2023-04-11T12:18:17.616Z,20.55
2023-04-11T12:19:17.646Z,20.54
2023-04-11T12:20:17.689Z,20.55
2023-04-11T12:21:17.724Z,20.54
2023-04-11T12:22:17.745Z,20.54
2023-04-11T12:23:16.766Z,20.59
2023-04-11T12:24:17.805Z,20.64
2023-04-11T12:25:17.825Z,20.59
2023-04-11T12:26:17.865Z,20.58
2023-04-11T12:27:16.900Z,20.58
2023-04-11T12:28:17.945Z,20.59
2023-04-11T12:29:16.969Z,20.63
2023-04-11T12:30:17.080Z,20.57
2023-04-11T12:31:18.082Z,20.61
2023-04-11T12:32:18.069Z,20.71
2023-04-11T12:33:17.095Z,20.70
2023-04-11T12:34:17.130Z,20.76
2023-04-11T12:35:17.146Z,20.86
2023-04-11T12:36:18.148Z,20.91
2023-04-11T12:37:18.146Z,20.95
2023-04-11T12:38:18.446Z,20.93
2023-04-11T12:39:17.165Z,21.02
2023-04-11T12:40:18.173Z,21.10
2023-04-11T12:42:20.984Z,21.13
2023-04-11T12:43:18.147Z,21.22
2023-04-11T12:44:17.127Z,21.20
2023-04-11T12:45:18.142Z,21.25
2023-04-11T12:46:17.221Z,21.27
2023-04-11T12:47:17.117Z,21.26
2023-04-11T12:48:17.100Z,21.20
2023-04-11T12:49:18.107Z,21.23
2023-04-11T12:50:17.099Z,21.22
2023-04-11T12:51:18.102Z,21.22
2023-04-11T12:52:18.097Z,21.23
2023-04-11T12:53:18.060Z,21.27
2023-04-11T12:54:18.070Z,21.23
2023-04-11T12:55:18.098Z,21.22
2023-04-11T12:56:17.050Z,21.20
2023-04-11T12:57:18.072Z,21.17
2023-04-11T12:58:17.046Z,21.19
2023-04-11T12:59:17.035Z,21.16
2023-04-11T13:00:18.036Z,21.17
2023-04-11T13:01:18.047Z,21.16
2023-04-11T13:02:17.143Z,21.16
2023-04-11T13:03:18.127Z,21.13
2023-04-11T13:04:17.021Z,21.11
2023-04-11T13:05:17.363Z,21.13
2023-04-11T13:06:17.983Z,21.13
2023-04-11T13:07:16.972Z,21.11
2023-04-11T13:08:17.963Z,21.13
2023-04-11T13:09:17.950Z,21.17
2023-04-11T13:10:17.972Z,21.19
2023-04-11T13:11:16.944Z,21.19
2023-04-11T13:12:16.936Z,21.23
2023-04-11T13:13:18.330Z,21.19
2023-04-11T13:14:16.923Z,21.22
2023-04-11T13:15:17.930Z,21.22
2023-04-11T13:16:18.015Z,21.25
2023-04-11T13:17:16.988Z,21.22
2023-04-11T13:18:17.045Z,21.26
2023-04-11T13:19:18.028Z,21.27
2023-04-11T13:20:18.032Z,21.27
2023-04-11T13:21:17.044Z,21.25
2023-04-11T13:22:18.045Z,21.19
2023-04-11T13:23:17.533Z,21.19
2023-04-11T13:24:18.068Z,21.22
2023-04-11T13:25:18.057Z,21.19
2023-04-11T13:26:17.075Z,21.19
2023-04-11T13:27:17.080Z,21.16
2023-04-11T13:28:18.086Z,21.19
2023-04-11T13:29:17.113Z,21.22
2023-04-11T13:30:17.125Z,21.22
2023-04-11T13:31:18.209Z,21.25
2023-04-11T13:32:17.128Z,21.23
2023-04-11T13:33:17.152Z,21.26
2023-04-11T13:34:18.202Z,21.26
2023-04-11T13:35:18.173Z,21.29
2023-04-11T13:36:18.160Z,21.31
2023-04-11T13:37:18.182Z,21.31
2023-04-11T13:38:18.202Z,21.29
2023-04-11T13:39:18.257Z,21.38
2023-04-11T13:40:18.281Z,21.37
2023-04-11T13:41:18.318Z,21.43
2023-04-11T13:42:18.336Z,21.45
2023-04-11T13:43:18.380Z,21.43
2023-04-11T13:44:18.437Z,21.44
2023-04-11T13:45:17.511Z,21.45
2023-04-11T13:46:18.625Z,21.45
2023-04-11T13:47:18.581Z,21.48
2023-04-11T13:48:18.612Z,21.47
2023-04-11T13:49:18.656Z,21.50
2023-04-11T13:50:18.730Z,21.54
2023-04-11T13:51:17.750Z,21.51
2023-04-11T13:52:18.808Z,21.54
2023-04-11T13:53:18.855Z,21.53
2023-04-11T13:54:18.928Z,21.58
2023-04-11T13:55:19.020Z,21.55
2023-04-11T13:56:19.033Z,21.51
2023-04-11T13:57:18.135Z,21.57
2023-04-11T13:58:19.138Z,21.61
2023-04-11T13:59:19.195Z,21.55
2023-04-11T14:00:19.329Z,21.58
2023-04-11T14:01:19.371Z,21.58
2023-04-11T14:02:18.403Z,21.68
2023-04-11T14:03:18.498Z,21.61
2023-04-11T14:04:19.568Z,21.66
2023-04-11T14:05:18.522Z,21.71
2023-04-11T14:06:19.646Z,21.74
2023-04-11T14:07:18.619Z,21.65
2023-04-11T14:08:18.644Z,21.77
2023-04-11T14:09:18.694Z,21.77
2023-04-11T14:10:18.720Z,21.85
2023-04-11T14:11:19.797Z,21.78
2023-04-11T14:12:18.836Z,21.81
2023-04-11T14:13:19.903Z,21.78
2023-04-11T14:14:19.937Z,21.74
2023-04-11T14:15:21.238Z,21.60
2023-04-11T14:16:20.094Z,21.62
2023-04-11T14:17:20.039Z,21.54
2023-04-11T14:18:19.972Z,21.51
2023-04-11T14:19:19.970Z,21.48
2023-04-11T14:20:18.970Z,21.45
2023-04-11T14:21:18.952Z,21.36
2023-04-11T14:22:19.979Z,21.33
2023-04-11T14:23:19.941Z,21.34
2023-04-11T14:24:18.941Z,21.30
2023-04-11T14:25:19.909Z,21.30
2023-04-11T14:26:18.896Z,21.30
2023-04-11T14:27:19.895Z,21.30
2023-04-11T14:28:19.912Z,21.25
2023-04-11T14:29:20.901Z,21.23
2023-04-11T14:30:19.919Z,21.20
2023-04-11T14:31:19.954Z,21.17
2023-04-11T14:32:19.862Z,21.19
2023-04-11T14:33:18.858Z,21.14
2023-04-11T14:34:19.831Z,21.10
2023-04-11T14:35:19.836Z,21.11
2023-04-11T14:36:19.847Z,21.07
2023-04-11T14:37:18.867Z,21.06
2023-04-11T14:38:19.939Z,21.02
2023-04-11T14:39:18.810Z,21.02
2023-04-11T14:40:19.803Z,21.05
2023-04-11T14:41:19.791Z,21.00
2023-04-11T14:42:18.789Z,20.99
2023-04-11T14:43:19.788Z,21.00
2023-04-11T14:44:19.770Z,20.99
2023-04-11T14:45:18.768Z,20.99
2023-04-11T14:46:19.770Z,20.96
2023-04-11T14:47:18.747Z,20.95
2023-04-11T14:48:18.753Z,20.93
2023-04-11T14:49:18.763Z,20.91
2023-04-11T14:50:19.721Z,20.92
2023-04-11T14:51:18.809Z,20.92
2023-04-11T14:52:18.726Z,20.91
2023-04-11T14:53:18.697Z,20.88
2023-04-11T14:54:19.715Z,20.92
2023-04-11T14:55:19.709Z,20.85
2023-04-11T14:56:19.689Z,20.86
2023-04-11T14:57:18.679Z,20.89
2023-04-11T14:58:19.684Z,20.86
2023-04-11T14:59:19.664Z,20.85
2023-04-11T15:00:19.759Z,20.86
2023-04-11T15:01:18.776Z,20.89
2023-04-11T15:02:18.943Z,20.89
2023-04-11T15:03:19.744Z,20.89
2023-04-11T15:04:19.720Z,20.89
2023-04-11T15:05:19.712Z,20.88
2023-04-11T15:06:18.687Z,20.86
2023-04-11T15:07:19.610Z,20.88
2023-04-11T15:08:18.628Z,20.83
2023-04-11T15:09:19.602Z,20.83
2023-04-11T15:10:18.715Z,20.82
2023-04-11T15:11:19.574Z,20.83
2023-04-11T15:12:19.574Z,20.79
2023-04-11T15:13:19.570Z,20.74
2023-04-11T15:14:19.554Z,20.79
2023-04-11T15:15:18.551Z,20.78
2023-04-11T15:16:20.644Z,20.79
2023-04-11T15:17:19.528Z,20.79
2023-04-11T15:18:18.706Z,20.75
2023-04-11T15:19:19.521Z,20.76
2023-04-11T15:20:18.507Z,20.78
2023-04-11T15:21:18.553Z,20.76
2023-04-11T15:22:18.645Z,20.72
2023-04-11T15:23:18.626Z,20.74
2023-04-11T15:24:19.688Z,20.75
2023-04-11T15:25:19.742Z,20.75
2023-04-11T15:26:19.840Z,20.70
2023-04-11T15:27:18.844Z,20.74
2023-04-11T15:28:18.879Z,20.74
2023-04-11T15:29:18.940Z,20.74
